This is the latest recevied weather packets stored in our database for station/object OK1KZE-6. If no packets are shown the sender has not sent any weather packets the latest 1 day(s).
| Time | Temp. | Humidity | Pressure | Rain* | Wind** | Luminosity | Snow |
|---|---|---|---|---|---|---|---|
| 1836274681 | 15° C | 81% | 1024.2 hPa | - | 4.02 m/s, 167° | - | - |
| 1836274530 | 14.44° C | 82% | 1023.8 hPa | - | 4.02 m/s, 170° | - | - |
| 1836274380 | 15° C | 80% | 1024.2 hPa | - | 3.13 m/s, 173° | - | - |
| 1836274231 | 15° C | 81% | 1023.9 hPa | - | 4.02 m/s, 170° | - | - |
| 1836274080 | 15.56° C | 79% | 1024.4 hPa | - | 2.68 m/s, 172° | - | - |
| 1778019607 | 12.22° C | 97% | 1008.9 hPa | - | 3.13 m/s, 107° | - | - |
| 1778019308 | 12.22° C | 97% | 1008.6 hPa | - | 2.24 m/s, 76° | - | - |
| 1778019008 | 12.22° C | 96% | 1008.5 hPa | - | 5.36 m/s, 63° | - | - |
| 1778018708 | 12.22° C | 97% | 1008.8 hPa | - | 3.13 m/s, 53° | - | - |
| 1778018408 | 12.78° C | 98% | 1008.8 hPa | - | 4.02 m/s, 55° | - | - |
| 1778018107 | 12.78° C | 98% | 1008.8 hPa | - | 3.13 m/s, 49° | - | - |
| 1778017507 | 12.78° C | 98% | 1009 hPa | - | 1.79 m/s, 46° | - | - |
| 1778017207 | 12.78° C | 98% | 1008.8 hPa | - | 2.24 m/s, 58° | - | - |
| 1778016907 | 12.78° C | 98% | 1009 hPa | - | 3.13 m/s, 33° | - | - |
| 1778016608 | 12.78° C | 98% | 1009.1 hPa | - | 3.58 m/s, 43° | - | - |
| 1778016308 | 12.78° C | 98% | 1008.7 hPa | - | 0.89 m/s, 8° | - | - |
| 1778016007 | 12.78° C | 98% | 1008.8 hPa | - | 0.89 m/s, 288° | - | - |
| 1778015708 | 12.78° C | 97% | 1008.7 hPa | - | 2.68 m/s, 259° | - | - |
| 1778015407 | 13.33° C | 96% | 1008.8 hPa | - | 1.34 m/s, 257° | - | - |
| 1778015107 | 13.33° C | 95% | 1008.5 hPa | - | 3.13 m/s, 281° | - | - |
| 1778014808 | 13.33° C | 95% | 1008.5 hPa | - | 1.79 m/s, 257° | - | - |
| 1778014508 | 13.33° C | 95% | 1008.1 hPa | - | 4.02 m/s, 334° | - | - |
| 1778014208 | 13.33° C | 95% | 1008.2 hPa | - | 1.79 m/s, 294° | - | - |
| 1778013908 | 13.89° C | 94% | 1008.5 hPa | - | 3.13 m/s, 196° | - | - |
| 1778013607 | 13.89° C | 92% | 1008.4 hPa | - | 2.24 m/s, 217° | - | - |
* Rain since midnight (hover to see other rain measurements)
** Current wind speed in m/s (hover to see current wind gust speed)